Elizabethtown, Kentucky
Current Conditions -  °F | °C
As of 12:58 AM on Saturday 20 Dec 2014 (Local Time) from KFTK Reporting Station
Scattered Clouds Scattered Clouds  
Wind Chill: 21°   Ceiling: Unl
Heat Index: 29°   Visibility: 10mi
Dew Point: 22°   Wind: 7mph
Humidity: 77%   Direction: 60°ENE
Pressure: 30.25"   Gusts: NA
Location:  37.69°N, 85.86°W
Report Text: KFTK 200558Z AUTO 06006KT 10SM SCT070 M02/M05 A3025 RMK AO2 SLP254 T10191055 11015 21025 53000
Loading
Personal Weather Stations






























Interactive Weather Map New forecast layout! Learn more

10-Day Weather Forecast

Advertisements
Track Severe Weather on mobile